createdAt,value
2023-03-12T00:00:16.642Z,29.767
2023-03-12T00:05:16.448Z,29.767
2023-03-12T00:10:16.359Z,29.771
2023-03-12T00:15:16.541Z,29.770
2023-03-12T00:20:16.468Z,29.773
2023-03-12T00:25:16.544Z,29.773
2023-03-12T00:30:16.900Z,29.774
2023-03-12T00:35:16.513Z,29.776
2023-03-12T00:40:16.468Z,29.777
2023-03-12T00:45:17.109Z,29.779
2023-03-12T00:50:16.448Z,29.779
2023-03-12T00:55:16.637Z,29.779
2023-03-12T01:00:16.560Z,29.780
2023-03-12T01:05:17.216Z,29.781
2023-03-12T01:10:16.511Z,29.782
2023-03-12T01:15:16.785Z,29.781
2023-03-12T01:20:16.581Z,29.780
2023-03-12T01:25:16.657Z,29.779
2023-03-12T01:30:16.604Z,29.781
2023-03-12T01:35:16.630Z,29.781
2023-03-12T01:40:16.915Z,29.781
2023-03-12T01:45:16.784Z,29.782
2023-03-12T01:50:16.691Z,29.785
2023-03-12T01:55:16.723Z,29.786
2023-03-12T02:00:16.672Z,29.785
2023-03-12T02:05:16.781Z,29.784
2023-03-12T02:10:16.772Z,29.790
2023-03-12T02:15:17.296Z,29.791
2023-03-12T02:20:16.752Z,29.792
2023-03-12T02:25:16.778Z,29.792
2023-03-12T02:30:16.787Z,29.791
2023-03-12T02:35:16.773Z,29.792
2023-03-12T02:40:16.740Z,29.793
2023-03-12T02:45:16.939Z,29.793
2023-03-12T02:50:17.111Z,29.793
2023-03-12T02:55:16.943Z,29.792
2023-03-12T03:00:16.867Z,29.792
2023-03-12T03:05:16.986Z,29.792
2023-03-12T03:10:16.890Z,29.793
2023-03-12T03:15:17.222Z,29.791
2023-03-12T03:20:16.933Z,29.792
2023-03-12T03:25:17.405Z,29.793
2023-03-12T03:30:17.230Z,29.793
2023-03-12T03:35:17.066Z,29.795
2023-03-12T03:40:16.861Z,29.798
2023-03-12T03:45:17.282Z,29.797
2023-03-12T03:50:17.072Z,29.798
2023-03-12T03:55:17.295Z,29.799
2023-03-12T04:00:17.269Z,29.803
2023-03-12T04:05:17.120Z,29.801
2023-03-12T04:10:17.177Z,29.803
2023-03-12T04:15:17.276Z,29.803
2023-03-12T04:20:17.056Z,29.803
2023-03-12T04:25:17.126Z,29.806
2023-03-12T04:30:17.556Z,29.808
2023-03-12T04:35:17.716Z,29.808
2023-03-12T04:40:17.145Z,29.810
2023-03-12T04:45:17.215Z,29.812
2023-03-12T04:50:17.110Z,29.811
2023-03-12T04:55:17.284Z,29.812
2023-03-12T05:00:18.793Z,29.813
2023-03-12T05:05:18.837Z,29.812
2023-03-12T05:10:16.202Z,29.814
2023-03-12T05:15:16.445Z,29.816
2023-03-12T05:20:16.170Z,29.817
2023-03-12T05:25:16.261Z,29.818
2023-03-12T05:30:16.331Z,29.821
2023-03-12T05:35:16.301Z,29.822
2023-03-12T05:40:16.308Z,29.818
2023-03-12T05:45:17.061Z,29.821
2023-03-12T05:50:16.468Z,29.822
2023-03-12T05:55:16.376Z,29.823
2023-03-12T06:00:16.404Z,29.823
2023-03-12T06:05:16.602Z,29.825
2023-03-12T06:10:16.352Z,29.825
2023-03-12T06:15:16.746Z,29.825
2023-03-12T06:20:16.401Z,29.824
2023-03-12T06:25:16.521Z,29.826
2023-03-12T06:30:16.498Z,29.828
2023-03-12T06:35:16.491Z,29.829
2023-03-12T06:40:16.433Z,29.829
2023-03-12T06:45:16.568Z,29.827
2023-03-12T06:50:16.606Z,29.829
2023-03-12T06:55:16.913Z,29.830
2023-03-12T07:00:17.091Z,29.833
2023-03-12T07:05:16.626Z,29.832
2023-03-12T07:10:16.754Z,29.832
2023-03-12T07:15:16.656Z,29.835
2023-03-12T07:20:16.580Z,29.834
2023-03-12T07:25:18.957Z,29.835
2023-03-12T07:30:16.812Z,29.835
2023-03-12T07:35:16.645Z,29.834
2023-03-12T07:40:18.742Z,29.834
2023-03-12T07:45:16.939Z,29.835
2023-03-12T07:50:16.646Z,29.835
2023-03-12T07:55:17.411Z,29.837
2023-03-12T08:00:16.702Z,29.839
2023-03-12T08:05:16.988Z,29.837
2023-03-12T08:10:16.715Z,29.841
2023-03-12T08:15:17.584Z,29.845
2023-03-12T08:20:16.679Z,29.841
2023-03-12T08:25:16.706Z,29.844
2023-03-12T08:30:16.984Z,29.846
2023-03-12T08:35:16.962Z,29.846
2023-03-12T08:40:16.755Z,29.848
2023-03-12T08:45:17.017Z,29.848
2023-03-12T08:50:16.805Z,29.848
2023-03-12T08:55:16.933Z,29.850
2023-03-12T09:00:16.969Z,29.848
2023-03-12T09:05:16.998Z,29.846
2023-03-12T09:10:16.972Z,29.847
2023-03-12T09:15:18.966Z,29.846
2023-03-12T09:20:16.958Z,29.847
2023-03-12T09:25:16.990Z,29.847
2023-03-12T09:30:17.340Z,29.852
2023-03-12T09:35:17.031Z,29.851
2023-03-12T09:40:17.052Z,29.854
2023-03-12T09:45:17.109Z,29.852
2023-03-12T09:50:17.022Z,29.853
2023-03-12T09:55:17.060Z,29.854
2023-03-12T10:00:17.169Z,29.852
2023-03-12T10:05:17.309Z,29.855
2023-03-12T10:10:17.039Z,29.857
2023-03-12T10:15:17.467Z,29.855
2023-03-12T10:20:17.018Z,29.857
2023-03-12T10:25:19.452Z,29.858
2023-03-12T10:30:17.069Z,29.855
2023-03-12T10:35:17.245Z,29.857
2023-03-12T10:40:17.101Z,29.861
2023-03-12T10:45:17.771Z,29.860
2023-03-12T10:50:17.287Z,29.865
2023-03-12T10:55:17.257Z,29.868
2023-03-12T11:00:17.259Z,29.869
2023-03-12T11:05:17.248Z,29.873
2023-03-12T11:10:17.171Z,29.874
2023-03-12T11:15:17.488Z,29.877
2023-03-12T11:20:17.283Z,29.881
2023-03-12T11:25:17.726Z,29.881
2023-03-12T11:30:17.631Z,29.881
2023-03-12T11:35:17.741Z,29.884
2023-03-12T11:40:17.310Z,29.885
2023-03-12T11:45:17.716Z,29.887
2023-03-12T11:50:17.292Z,29.890
2023-03-12T11:55:17.413Z,29.891
2023-03-12T12:00:18.231Z,29.893
2023-03-12T12:05:17.452Z,29.894
2023-03-12T12:10:17.329Z,29.894
2023-03-12T12:15:17.576Z,29.895
2023-03-12T12:20:17.357Z,29.897
2023-03-12T12:25:17.463Z,29.901
2023-03-12T12:30:17.440Z,29.899
2023-03-12T12:35:17.901Z,29.900
2023-03-12T12:40:17.844Z,29.905
2023-03-12T12:45:17.939Z,29.904
2023-03-12T12:50:17.623Z,29.906
2023-03-12T12:55:17.613Z,29.906
2023-03-12T13:00:17.926Z,29.905
2023-03-12T13:05:17.785Z,29.907
2023-03-12T13:10:24.859Z,29.906
2023-03-12T13:15:18.584Z,29.909
2023-03-12T13:20:17.699Z,29.906
2023-03-12T13:25:17.675Z,29.912
2023-03-12T13:30:17.625Z,29.912
2023-03-12T13:35:17.921Z,29.911
2023-03-12T13:40:17.554Z,29.911
2023-03-12T13:45:18.285Z,29.911
2023-03-12T13:50:18.132Z,29.915
2023-03-12T13:55:18.147Z,29.911
2023-03-12T14:00:18.278Z,29.909
2023-03-12T14:05:18.346Z,29.909
2023-03-12T14:10:17.883Z,29.906
2023-03-12T14:15:18.401Z,29.908
2023-03-12T14:20:17.880Z,29.907
2023-03-12T14:25:18.015Z,29.907
2023-03-12T14:30:18.474Z,29.909
2023-03-12T14:35:18.195Z,29.913
2023-03-12T14:40:18.244Z,29.913
2023-03-12T14:45:18.400Z,29.915
2023-03-12T14:50:18.241Z,29.917
2023-03-12T14:55:18.472Z,29.916
2023-03-12T15:00:18.385Z,29.917
2023-03-12T15:05:18.647Z,29.916
2023-03-12T15:10:18.179Z,29.918
2023-03-12T15:15:18.796Z,29.921
2023-03-12T15:20:18.128Z,29.924
2023-03-12T15:25:18.325Z,29.925
2023-03-12T15:30:18.590Z,29.922
2023-03-12T15:35:18.474Z,29.921
2023-03-12T15:40:18.190Z,29.925
2023-03-12T15:45:18.631Z,29.927
2023-03-12T15:50:18.324Z,29.923
2023-03-12T15:55:18.522Z,29.924
2023-03-12T16:00:18.768Z,29.922
2023-03-12T16:05:19.565Z,29.925
2023-03-12T16:10:18.554Z,29.931
2023-03-12T16:15:19.048Z,29.927
2023-03-12T16:20:18.422Z,29.922
2023-03-12T16:25:18.587Z,29.922
2023-03-12T16:30:18.528Z,29.922
2023-03-12T16:35:18.556Z,29.925
2023-03-12T16:40:31.171Z,29.928
2023-03-12T16:45:18.659Z,29.932
2023-03-12T16:50:18.699Z,29.937
2023-03-12T16:55:18.628Z,29.939
2023-03-12T17:00:18.957Z,29.942
2023-03-12T17:05:16.628Z,29.944
2023-03-12T17:10:16.209Z,29.948
2023-03-12T17:15:16.659Z,29.947
2023-03-12T17:20:16.249Z,29.947
2023-03-12T17:25:16.678Z,29.947
2023-03-12T17:30:16.359Z,29.947
2023-03-12T17:35:16.375Z,29.950
2023-03-12T17:40:16.277Z,29.953
2023-03-12T17:45:16.571Z,29.955
2023-03-12T17:50:16.421Z,29.957
2023-03-12T17:55:16.398Z,29.963
2023-03-12T18:00:16.525Z,29.964
2023-03-12T18:05:16.461Z,29.963
2023-03-12T18:10:16.664Z,29.964
2023-03-12T18:15:17.058Z,29.963
2023-03-12T18:20:23.354Z,29.961
2023-03-12T18:25:16.768Z,29.961
2023-03-12T18:30:16.446Z,29.958
2023-03-12T18:35:16.799Z,29.958
2023-03-12T18:40:16.575Z,29.959
2023-03-12T18:45:16.666Z,29.961
2023-03-12T18:50:16.496Z,29.961
2023-03-12T18:55:16.622Z,29.964
2023-03-12T19:00:16.758Z,29.963
2023-03-12T19:05:16.702Z,29.962
2023-03-12T19:10:16.519Z,29.962
2023-03-12T19:15:17.188Z,29.962
2023-03-12T21:21:09.512Z,29.946
2023-03-12T21:25:17.132Z,29.945
2023-03-12T21:30:17.022Z,29.942
2023-03-12T21:35:16.974Z,29.941
2023-03-12T21:40:17.001Z,29.943
2023-03-12T21:45:18.598Z,29.940
2023-03-12T21:50:18.036Z,29.939
2023-03-12T21:55:18.340Z,29.940
2023-03-12T22:00:18.011Z,29.945
2023-03-12T22:05:18.061Z,29.948
2023-03-12T22:10:18.525Z,29.949
2023-03-12T22:15:18.224Z,29.945
2023-03-12T22:20:18.748Z,29.946
2023-03-12T22:25:18.632Z,29.943
2023-03-12T22:30:18.915Z,29.940
2023-03-12T22:35:18.146Z,29.939
2023-03-12T22:40:18.123Z,29.943
2023-03-12T22:45:18.458Z,29.944
2023-03-12T22:50:18.189Z,29.948
2023-03-12T22:55:18.456Z,29.955
2023-03-12T23:00:18.299Z,29.958
2023-03-12T23:05:16.303Z,29.958
2023-03-12T23:10:16.270Z,29.963
2023-03-12T23:15:16.612Z,29.966
2023-03-12T23:20:16.536Z,29.968
2023-03-12T23:25:16.352Z,29.969
2023-03-12T23:30:16.524Z,29.972
2023-03-12T23:35:16.554Z,29.971
2023-03-12T23:40:16.490Z,29.970
2023-03-12T23:45:16.894Z,29.969
2023-03-12T23:50:16.387Z,29.970
2023-03-12T23:55:16.362Z,29.972
